Time;durP1;ratioP1;P1;durP2;ratioP2;P2;SDS_P1;SDS_P2;PMS_P1;PMS_P2;Temp;Humidity;BMP_temperature;BMP_pressure;BME280_temperature;BME280_humidity;BME280_pressure;Samples;Min_cycle;Max_cycle;Signal;HPM_P1;HPM_P2
2021/08/22 00:00:30;;;;;;;3.00;1.90;;;;;;;19.33;62.06;100510.16;1700394;83;21113;-67
2021/08/22 00:02:56;;;;;;;2.80;1.65;;;;;;;19.31;62.23;100504.14;1648617;85;21045;-63
2021/08/22 00:05:22;;;;;;;1.70;1.60;;;;;;;19.21;62.54;100506.97;1655418;86;20994;-64
2021/08/22 00:07:48;;;;;;;2.50;2.20;;;;;;;19.17;62.86;100508.48;1645961;85;21018;-61
2021/08/22 00:10:16;;;;;;;1.80;1.80;;;;;;;19.18;62.93;100507.44;1655284;85;21082;-65
2021/08/22 00:12:42;;;;;;;3.80;3.58;;;;;;;19.18;62.93;100512.84;1687815;83;21668;-65
2021/08/22 00:15:10;;;;;;;4.53;4.22;;;;;;;19.18;62.87;100513.39;1698951;83;21076;-65
2021/08/22 00:17:37;;;;;;;4.78;4.45;;;;;;;19.17;62.79;100513.08;1711746;83;21012;-63
2021/08/22 00:20:06;;;;;;;3.62;3.42;;;;;;;19.09;63.01;100510.78;1691431;83;21087;-63
2021/08/22 00:22:32;;;;;;;2.80;2.60;;;;;;;19.02;63.43;100515.80;1686707;83;21492;-63
2021/08/22 00:24:58;;;;;;;2.90;2.60;;;;;;;18.99;63.82;100521.66;1665885;85;21153;-64
2021/08/22 00:27:24;;;;;;;1.92;1.82;;;;;;;19.02;63.58;100522.55;1657649;85;21073;-60
2021/08/22 00:29:50;;;;;;;0.68;0.68;;;;;;;19.00;63.62;100525.18;1663232;85;21009;-62
2021/08/22 00:32:17;;;;;;;1.65;1.55;;;;;;;18.94;63.26;100527.50;1633253;86;21105;-64
2021/08/22 00:34:43;;;;;;;3.98;3.17;;;;;;;18.89;63.55;100528.73;1615972;86;21085;-61
2021/08/22 00:37:09;;;;;;;6.35;5.95;;;;;;;18.89;63.61;100531.44;1615707;88;21029;-60
2021/08/22 00:39:35;;;;;;;7.20;6.62;;;;;;;18.86;63.63;100537.61;1597887;88;21132;-58
2021/08/22 00:42:02;;;;;;;4.87;4.50;;;;;;;18.84;64.05;100532.16;1589227;89;21063;-58
2021/08/22 00:44:28;;;;;;;4.92;4.62;;;;;;;18.82;64.35;100532.40;1592797;88;21115;-59
2021/08/22 00:46:56;;;;;;;4.33;4.03;;;;;;;18.84;64.31;100534.86;1608210;87;21039;-58
2021/08/22 00:49:26;;;;;;;3.83;3.55;;;;;;;18.88;64.41;100536.02;1623329;87;21070;-60
2021/08/22 00:51:53;;;;;;;4.70;4.33;;;;;;;18.93;64.17;100533.44;1626899;86;21117;-61
2021/08/22 00:54:20;;;;;;;5.15;2.27;;;;;;;18.96;64.29;100532.13;1623475;87;21228;-60
2021/08/22 00:56:46;;;;;;;2.15;2.05;;;;;;;18.98;64.19;100530.81;1617523;86;21121;-59
2021/08/22 00:59:16;;;;;;;2.20;2.10;;;;;;;19.02;64.02;100534.70;1596849;88;21112;-60
2021/08/22 01:01:48;;;;;;;5.58;2.47;;;;;;;18.98;64.09;100534.05;1609176;88;22282;-59
2021/08/22 01:04:19;;;;;;;3.30;1.98;;;;;;;18.95;64.33;100543.47;1613939;87;21157;-61
2021/08/22 01:07:07;;;;;;;2.30;2.20;;;;;;;18.88;64.70;100543.31;1604582;88;21557;-65
2021/08/22 01:09:45;;;;;;;2.15;1.98;;;;;;;18.84;64.71;100544.31;1602023;88;21122;-65
2021/08/22 01:12:33;;;;;;;2.17;2.08;;;;;;;18.80;64.98;100550.72;1630345;86;21029;-64
2021/08/22 01:15:07;;;;;;;6.67;2.37;;;;;;;18.81;65.02;100552.34;1640198;85;21591;-66
2021/08/22 01:17:42;;;;;;;2.30;2.20;;;;;;;18.91;64.70;100546.87;1641358;86;21069;-66
2021/08/22 01:20:28;;;;;;;1.90;1.80;;;;;;;18.96;64.61;100558.59;1641436;86;21055;-66
2021/08/22 01:22:56;;;;;;;4.35;1.67;;;;;;;19.00;64.38;100554.89;1631642;86;21154;-65
2021/08/22 01:25:23;;;;;;;3.50;2.25;;;;;;;19.04;64.33;100560.95;1621348;87;21533;-67
2021/08/22 01:27:51;;;;;;;2.05;1.67;;;;;;;19.08;64.01;100555.89;1639457;86;21107;-64
2021/08/22 01:30:18;;;;;;;1.70;1.60;;;;;;;19.03;64.04;100560.64;1590486;88;21056;-65
2021/08/22 01:32:48;;;;;;;2.15;1.70;;;;;;;18.96;64.17;100564.00;1624171;86;21142;-65
2021/08/22 01:35:19;;;;;;;3.52;1.95;;;;;;;18.94;64.35;100561.26;1649314;85;21047;-65
2021/08/22 01:37:48;;;;;;;1.72;1.62;;;;;;;18.96;64.33;100561.84;1655030;84;21108;-65
2021/08/22 01:40:18;;;;;;;1.70;1.60;;;;;;;18.90;64.27;100566.31;1665497;84;21084;-64
2021/08/22 01:42:46;;;;;;;1.92;1.82;;;;;;;18.88;64.44;100565.73;1651903;84;21071;-63
2021/08/22 01:45:17;;;;;;;1.40;1.30;;;;;;;18.82;64.32;100563.45;1678974;83;21141;-63
2021/08/22 01:47:49;;;;;;;2.33;1.55;;;;;;;18.76;64.58;100561.68;1660443;84;21577;-65
2021/08/22 01:50:21;;;;;;;3.90;1.62;;;;;;;18.83;64.69;100563.73;1667977;84;21108;-64
2021/08/22 01:53:03;;;;;;;2.42;1.27;;;;;;;18.90;64.04;100566.31;1649446;85;21042;-64
2021/08/22 01:55:33;;;;;;;2.47;1.27;;;;;;;18.77;64.18;100567.36;1659827;84;21682;-63
2021/08/22 01:57:59;;;;;;;1.82;1.72;;;;;;;18.64;64.93;100563.55;1681715;84;21033;-64
2021/08/22 02:00:26;;;;;;;2.10;1.90;;;;;;;18.64;64.97;100568.42;1673449;84;21090;-64
2021/08/22 02:03:00;;;;;;;1.17;1.17;;;;;;;18.70;64.79;100565.84;1664335;84;21043;-64
2021/08/22 02:05:29;;;;;;;1.65;1.55;;;;;;;18.74;64.32;100565.14;1658964;85;21109;-64
2021/08/22 02:08:00;;;;;;;1.90;1.80;;;;;;;18.71;64.56;100565.61;1663657;85;21094;-64
2021/08/22 02:10:32;;;;;;;1.02;0.95;;;;;;;18.63;64.24;100565.98;1658866;85;21130;-64
2021/08/22 02:13:02;;;;;;;1.30;1.30;;;;;;;18.47;64.65;100573.70;1655112;84;21098;-64
2021/08/22 02:15:41;;;;;;;3.25;1.45;;;;;;;18.32;65.05;100567.96;1654938;85;21020;-64
2021/08/22 02:18:11;;;;;;;1.55;1.40;;;;;;;18.26;65.20;100570.25;1644055;85;21120;-64
2021/08/22 02:20:38;;;;;;;1.90;1.57;;;;;;;18.28;65.31;100570.30;1663586;85;21160;-63
2021/08/22 02:23:06;;;;;;;1.50;1.37;;;;;;;18.26;65.43;100574.30;1646043;83;21113;-63
2021/08/22 02:25:36;;;;;;;1.60;1.60;;;;;;;18.20;65.76;100574.70;1645611;85;21055;-66
2021/08/22 02:28:04;;;;;;;1.92;1.82;;;;;;;18.23;65.58;100574.75;1676612;85;21035;-66
2021/08/22 02:30:36;;;;;;;1.80;1.67;;;;;;;18.24;65.37;100581.27;1651155;85;21280;-67
2021/08/22 02:33:04;;;;;;;2.62;1.47;;;;;;;18.27;65.55;100573.23;1656659;85;21080;-65
2021/08/22 02:35:34;;;;;;;1.62;1.60;;;;;;;18.36;65.09;100585.32;1652961;85;21046;-64
2021/08/22 02:38:00;;;;;;;1.55;1.27;;;;;;;18.43;65.28;100581.17;1640582;85;20982;-64
2021/08/22 02:40:26;;;;;;;;;;;;;;;18.48;64.70;100584.81;1663645;85;21133;-62
2021/08/22 02:42:52;;;;;;;3.12;1.10;;;;;;;18.42;64.61;100579.01;1653432;85;20133;-61
2021/08/22 02:45:19;;;;;;;1.50;1.07;;;;;;;18.28;64.79;100585.14;1665784;84;21037;-59
2021/08/22 02:47:45;;;;;;;1.50;1.30;;;;;;;18.20;65.05;100580.63;1681442;84;21110;-61
2021/08/22 02:50:12;;;;;;;1.95;1.52;;;;;;;18.26;65.48;100587.79;1667316;84;21175;-61
2021/08/22 02:52:40;;;;;;;1.92;1.70;;;;;;;18.43;64.74;100586.57;1680289;84;21046;-61
2021/08/22 02:55:08;;;;;;;4.53;1.50;;;;;;;18.40;64.25;100562.73;1679362;83;21013;-60
2021/08/22 02:57:34;;;;;;;4.95;1.35;;;;;;;18.56;64.03;100590.92;1666986;84;21122;-59
2021/08/22 03:00:04;;;;;;;1.00;0.90;;;;;;;18.51;63.66;100583.51;1667853;84;21026;-58
2021/08/22 03:02:30;;;;;;;0.82;0.80;;;;;;;18.43;63.66;100588.73;1673432;84;21049;-61
2021/08/22 03:04:56;;;;;;;;;;;;;;;18.28;63.77;100593.23;1687136;84;21615;-60
2021/08/22 03:07:22;;;;;;;2.08;1.10;;;;;;;18.11;63.96;100595.52;1682549;84;20180;-60
2021/08/22 03:09:48;;;;;;;0.82;0.82;;;;;;;17.90;65.16;100597.69;1659037;84;21087;-59
2021/08/22 03:12:14;;;;;;;1.25;1.00;;;;;;;17.98;65.22;100601.94;1688627;84;21104;-59
2021/08/22 03:14:42;;;;;;;2.30;1.60;;;;;;;18.16;64.32;100599.16;1661941;84;21046;-60
2021/08/22 03:17:08;;;;;;;;;;;;;;;18.19;64.44;100599.21;1669631;84;21089;-60
2021/08/22 03:19:36;;;;;;;1.47;1.37;;;;;;;18.27;64.11;100608.30;1676590;84;20223;-61
2021/08/22 03:22:04;;;;;;;1.98;1.27;;;;;;;18.34;63.71;100608.20;1688377;84;21096;-60
2021/08/22 03:24:30;;;;;;;1.52;1.27;;;;;;;18.49;63.12;100612.08;1662528;84;21106;-58
2021/08/22 03:26:56;;;;;;;1.20;1.10;;;;;;;18.67;62.46;100613.86;1676763;83;21566;-60
2021/08/22 03:29:23;;;;;;;1.47;0.90;;;;;;;18.88;61.83;100612.18;1688781;84;21155;-61
2021/08/22 03:31:49;;;;;;;1.52;1.40;;;;;;;19.04;61.30;100610.08;1682117;84;21063;-60
2021/08/22 03:34:15;;;;;;;1.95;1.25;;;;;;;19.24;60.41;100613.20;1669208;85;21553;-61
2021/08/22 03:36:43;;;;;;;1.20;1.10;;;;;;;19.48;59.94;100613.16;1642701;84;21040;-63
2021/08/22 03:39:10;;;;;;;1.35;1.27;;;;;;;19.86;58.99;100621.19;1656061;85;21059;-62
2021/08/22 03:41:36;;;;;;;;;;;;;;;20.16;57.28;100614.13;1667317;84;21051;-62
2021/08/22 03:44:04;;;;;;;1.45;1.07;;;;;;;20.38;56.76;100610.67;1649780;85;20117;-63
2021/08/22 03:46:31;;;;;;;2.60;0.95;;;;;;;20.55;56.37;100610.66;1642566;85;21050;-63
2021/08/22 03:48:57;;;;;;;0.70;0.70;;;;;;;20.90;55.13;100617.16;1660775;85;21548;-63
2021/08/22 03:51:23;;;;;;;;;;;;;;;21.30;54.28;100619.29;1659596;84;21547;-63
2021/08/22 03:53:53;;;;;;;1.05;0.90;;;;;;;21.73;52.84;100614.91;1676051;84;20141;-64
2021/08/22 03:56:19;;;;;;;2.20;0.60;;;;;;;21.93;52.16;100612.95;1644126;84;21163;-64
2021/08/22 03:58:45;;;;;;;0.80;0.57;;;;;;;22.09;51.57;100613.89;1630568;87;21110;-62
2021/08/22 04:01:11;;;;;;;4.22;1.55;;;;;;;22.35;51.09;100621.19;1641717;85;21152;-63
2021/08/22 04:03:40;;;;;;;3.95;1.15;;;;;;;22.72;50.02;100613.58;1663850;84;21060;-61
2021/08/22 04:06:25;;;;;;;1.00;1.00;;;;;;;22.96;49.25;100615.87;1674330;84;21082;-62
2021/08/22 04:08:52;;;;;;;1.40;0.90;;;;;;;23.17;48.46;100616.83;1676869;84;21100;-62
2021/08/22 04:11:18;;;;;;;2.20;1.30;;;;;;;23.33;48.03;100607.63;1675079;84;21022;-60
2021/08/22 04:13:44;;;;;;;0.70;0.62;;;;;;;23.54;47.59;100613.69;1672001;84;21087;-61
2021/08/22 04:16:11;;;;;;;0.65;0.65;;;;;;;23.70;46.84;100616.72;1676441;84;21181;-63
2021/08/22 04:18:37;;;;;;;1.15;0.62;;;;;;;23.79;46.68;100615.14;1677788;84;21027;-63
2021/08/22 04:21:05;;;;;;;1.82;1.25;;;;;;;23.93;46.40;100611.89;1682210;84;21540;-62
2021/08/22 04:23:32;;;;;;;1.27;0.72;;;;;;;24.07;46.16;100619.25;1663502;84;21132;-61
2021/08/22 04:25:59;;;;;;;2.30;0.80;;;;;;;24.21;45.30;100619.52;1675111;84;21627;-59
2021/08/22 04:28:25;;;;;;;1.42;1.17;;;;;;;24.25;45.13;100617.06;1679433;84;21096;-62
2021/08/22 04:30:51;;;;;;;0.80;0.80;;;;;;;24.33;44.98;100617.88;1674286;84;21625;-63
2021/08/22 04:33:17;;;;;;;1.22;1.05;;;;;;;24.47;44.61;100619.52;1671361;84;22249;-64
2021/08/22 04:35:43;;;;;;;1.32;0.88;;;;;;;24.37;44.60;100618.14;1636769;86;21037;-60
2021/08/22 04:38:09;;;;;;;1.25;1.10;;;;;;;24.01;45.35;100624.95;1634236;87;21196;-60
2021/08/22 04:40:39;;;;;;;1.45;1.00;;;;;;;23.47;46.37;100625.64;1625486;86;21113;-59
2021/08/22 04:43:05;;;;;;;1.15;0.70;;;;;;;22.96;47.59;100625.93;1615566;87;21091;-60
2021/08/22 04:45:32;;;;;;;0.88;0.80;;;;;;;22.59;48.68;100628.98;1616329;87;21640;-59
2021/08/22 04:47:59;;;;;;;1.87;1.52;;;;;;;22.27;49.55;100635.80;1612138;87;21012;-60
2021/08/22 04:50:25;;;;;;;1.60;1.25;;;;;;;22.13;50.46;100641.64;1603777;87;21082;-62
2021/08/22 04:52:51;;;;;;;1.42;1.05;;;;;;;22.13;50.67;100640.28;1616373;87;21129;-60
2021/08/22 04:55:17;;;;;;;1.30;1.20;;;;;;;22.10;50.83;100642.14;1630673;84;21041;-61
2021/08/22 04:57:44;;;;;;;1.45;0.85;;;;;;;22.28;50.71;100638.78;1677207;84;21075;-63
2021/08/22 05:00:13;;;;;;;2.92;1.40;;;;;;;22.75;50.08;100642.11;1667432;84;21164;-61
2021/08/22 05:02:42;;;;;;;2.10;1.75;;;;;;;23.09;48.74;100643.98;1667913;84;20995;-60
2021/08/22 05:05:09;;;;;;;1.70;1.60;;;;;;;23.26;48.63;100647.88;1650491;84;21149;-60
2021/08/22 05:07:35;;;;;;;1.60;1.10;;;;;;;23.71;48.25;100645.55;1629578;86;21202;-60
2021/08/22 05:10:05;;;;;;;1.40;1.30;;;;;;;24.34;46.37;100644.59;1634193;86;21162;-62
2021/08/22 05:12:33;;;;;;;6.08;0.80;;;;;;;24.84;45.12;100640.98;1618303;86;21044;-63
2021/08/22 05:14:58;;;;;;;2.22;1.32;;;;;;;25.28;44.18;100643.61;1625719;86;21136;-62
2021/08/22 05:17:25;;;;;;;1.00;1.00;;;;;;;25.54;43.25;100639.38;1634403;86;21087;-61
2021/08/22 05:19:53;;;;;;;0.55;0.47;;;;;;;25.64;43.05;100644.24;1665085;85;21168;-63
2021/08/22 05:22:19;;;;;;;1.62;1.10;;;;;;;25.73;42.75;100644.48;1602657;87;21086;-61
2021/08/22 05:24:45;;;;;;;1.62;1.07;;;;;;;25.73;42.84;100644.48;1650334;85;21047;-62
2021/08/22 05:27:13;;;;;;;3.12;1.47;;;;;;;25.84;42.95;100649.30;1650095;85;21579;-61
2021/08/22 05:29:39;;;;;;;2.02;1.37;;;;;;;26.11;42.16;100646.16;1661349;85;21088;-61
2021/08/22 05:32:07;;;;;;;3.00;0.88;;;;;;;26.34;41.54;100646.52;1657663;85;21091;-61
2021/08/22 05:34:34;;;;;;;1.57;1.00;;;;;;;26.21;41.65;100639.79;1648795;85;21164;-62
2021/08/22 05:37:00;;;;;;;2.67;1.12;;;;;;;26.05;42.25;100650.03;1633510;86;21531;-66
2021/08/22 05:39:26;;;;;;;4.55;1.27;;;;;;;26.05;42.05;100647.83;1631364;86;21088;-68
2021/08/22 05:41:52;;;;;;;1.57;1.37;;;;;;;26.13;42.14;100642.58;1656831;85;21135;-68
2021/08/22 05:44:18;;;;;;;3.92;2.70;;;;;;;26.33;41.84;100646.23;1660471;84;21116;-68
2021/08/22 05:46:44;;;;;;;3.62;3.30;;;;;;;26.41;41.75;100652.47;1656927;84;21052;-72
2021/08/22 05:49:11;;;;;;;2.47;0.95;;;;;;;26.53;40.29;100647.42;1660139;85;21089;-69
2021/08/22 05:51:37;;;;;;;1.82;0.98;;;;;;;26.51;39.32;100644.73;1653331;85;21608;-72
2021/08/22 05:54:04;;;;;;;1.10;0.80;;;;;;;26.20;39.66;100644.45;1635131;86;21017;-71
2021/08/22 05:56:30;;;;;;;3.37;1.22;;;;;;;25.83;40.28;100648.49;1626091;86;21191;-70
2021/08/22 05:58:56;;;;;;;0.65;0.65;;;;;;;25.60;41.19;100650.00;1636130;86;21034;-70
2021/08/22 06:01:22;;;;;;;1.75;0.78;;;;;;;25.69;41.28;100653.50;1625787;86;21046;-71
2021/08/22 06:03:48;;;;;;;1.92;1.82;;;;;;;25.78;41.70;100653.98;1612843;87;21111;-68
2021/08/22 06:06:14;;;;;;;4.62;1.72;;;;;;;26.05;41.10;100652.77;1627821;86;21546;-70
2021/08/22 06:08:40;;;;;;;2.30;1.00;;;;;;;26.34;40.47;100647.88;1640642;86;20995;-71
2021/08/22 06:11:08;;;;;;;0.68;0.57;;;;;;;26.54;38.62;100660.53;1629394;86;21079;-69
2021/08/22 06:13:36;;;;;;;0.80;0.80;;;;;;;26.46;38.56;100658.43;1636659;85;21105;-72
2021/08/22 06:16:04;;;;;;;2.30;0.90;;;;;;;26.14;39.59;100651.03;1671981;85;21029;-73
2021/08/22 06:18:30;;;;;;;1.77;1.27;;;;;;;25.97;39.63;100643.79;1657112;85;21599;-73
2021/08/22 06:20:57;;;;;;;2.33;1.02;;;;;;;25.96;39.95;100654.47;1657937;85;21096;-70
2021/08/22 06:23:23;;;;;;;1.40;1.05;;;;;;;25.98;39.58;100651.70;1663288;84;21617;-65
2021/08/22 06:25:49;;;;;;;1.52;0.80;;;;;;;25.88;39.71;100653.13;1677215;84;21080;-65
2021/08/22 06:28:16;;;;;;;3.08;0.95;;;;;;;25.94;39.91;100652.57;1685109;83;21100;-68
2021/08/22 06:30:43;;;;;;;1.87;1.20;;;;;;;25.99;39.62;100651.14;1688573;84;21615;-70
2021/08/22 06:33:10;;;;;;;1.87;0.70;;;;;;;26.12;38.60;100657.33;1675231;84;21809;-64
2021/08/22 06:35:36;;;;;;;1.12;0.60;;;;;;;26.15;38.78;100655.41;1669043;85;21068;-65
2021/08/22 06:38:03;;;;;;;1.70;0.40;;;;;;;26.13;38.86;100658.17;1663007;85;21044;-65
2021/08/22 06:40:29;;;;;;;0.95;0.20;;;;;;;26.04;38.72;100660.67;1662144;84;21249;-65
2021/08/22 06:42:55;;;;;;;4.55;0.65;;;;;;;25.90;38.71;100655.55;1661474;85;21040;-65
2021/08/22 06:45:21;;;;;;;5.05;0.45;;;;;;;25.52;38.68;100660.13;1667879;84;21603;-67
2021/08/22 06:47:53;;;;;;;0.95;0.40;;;;;;;25.16;39.73;100666.26;1657401;84;21018;-66
2021/08/22 06:50:24;;;;;;;1.50;0.78;;;;;;;24.92;39.97;100666.89;1603690;87;21115;-67
2021/08/22 06:52:51;;;;;;;1.85;0.70;;;;;;;24.95;39.30;100663.59;1641382;85;21096;-68
2021/08/22 06:55:18;;;;;;;0.80;0.40;;;;;;;25.11;39.67;100668.47;1638765;86;21039;-66
2021/08/22 06:57:45;;;;;;;0.80;0.68;;;;;;;25.35;40.10;100663.20;1623919;87;21084;-66
2021/08/22 07:00:14;;;;;;;1.22;0.50;;;;;;;25.48;40.46;100660.98;1592571;88;21098;-64
2021/08/22 07:02:43;;;;;;;1.22;0.65;;;;;;;25.43;40.37;100669.47;1629081;86;21427;-68
2021/08/22 07:05:09;;;;;;;2.20;0.57;;;;;;;25.40;40.52;100665.92;1625190;86;21436;-67
2021/08/22 07:07:35;;;;;;;1.62;0.40;;;;;;;25.44;40.55;100665.62;1658213;85;21674;-68
2021/08/22 07:10:02;;;;;;;2.90;0.42;;;;;;;25.40;40.17;100663.19;1654434;85;21088;-51
2021/08/22 07:12:29;;;;;;;1.37;0.40;;;;;;;25.20;40.78;100670.06;1661677;84;21064;-62
2021/08/22 07:14:55;;;;;;;0.68;0.47;;;;;;;25.01;41.05;100671.20;1623547;86;21141;-64
2021/08/22 07:17:23;;;;;;;2.05;0.45;;;;;;;24.66;41.28;100675.09;1625637;86;21069;-62
2021/08/22 07:19:49;;;;;;;1.25;0.60;;;;;;;24.40;41.92;100674.27;1658105;85;22627;-63
2021/08/22 07:22:16;;;;;;;2.05;0.57;;;;;;;24.28;42.49;100673.73;1655346;85;21056;-63
2021/08/22 07:24:43;;;;;;;2.40;0.98;;;;;;;24.21;42.62;100681.34;1654154;85;21078;-61
2021/08/22 07:27:09;;;;;;;1.10;0.30;;;;;;;24.11;41.36;100679.44;1656343;85;20994;-59
2021/08/22 07:29:35;;;;;;;0.57;0.23;;;;;;;23.87;42.18;100673.12;1659860;85;21554;-60
2021/08/22 07:32:03;;;;;;;2.87;0.30;;;;;;;23.80;42.12;100678.00;1654028;85;21040;-61
2021/08/22 07:34:29;;;;;;;0.57;0.20;;;;;;;23.79;41.78;100680.45;1665445;84;21050;-60
2021/08/22 07:36:56;;;;;;;2.75;0.50;;;;;;;23.69;41.82;100670.31;1670655;84;21046;-60
2021/08/22 07:39:22;;;;;;;1.20;0.28;;;;;;;23.61;41.75;100678.19;1677323;84;20962;-59
2021/08/22 07:41:49;;;;;;;1.75;0.10;;;;;;;23.46;42.35;100678.40;1677450;84;21101;-61
2021/08/22 07:44:15;;;;;;;0.60;0.25;;;;;;;23.40;41.98;100675.39;1671525;84;21124;-62
2021/08/22 07:46:41;;;;;;;0.40;0.10;;;;;;;23.36;41.93;100677.02;1658465;85;21082;-61
2021/08/22 07:49:07;;;;;;;0.60;0.20;;;;;;;23.35;41.10;100676.72;1660168;85;21085;-61
2021/08/22 07:51:33;;;;;;;1.27;0.10;;;;;;;23.35;41.14;100678.08;1666296;85;21632;-62
2021/08/22 07:53:59;;;;;;;0.42;0.10;;;;;;;23.37;40.42;100678.63;1659266;85;21037;-62
2021/08/22 07:56:25;;;;;;;0.72;0.10;;;;;;;23.39;40.34;100677.83;1655302;84;21011;-60
2021/08/22 07:58:51;;;;;;;0.30;0.10;;;;;;;23.43;40.45;100684.39;1681616;84;21161;-61
2021/08/22 08:01:17;;;;;;;0.85;0.20;;;;;;;23.43;39.80;100682.19;1682009;83;21042;-60
2021/08/22 08:03:43;;;;;;;1.22;0.10;;;;;;;23.40;39.89;100683.55;1669568;84;21053;-61
2021/08/22 08:06:09;;;;;;;0.90;0.30;;;;;;;23.37;40.26;100684.07;1686468;84;21125;-62
2021/08/22 08:08:36;;;;;;;0.62;0.20;;;;;;;23.20;40.67;100678.02;1676876;84;21092;-61
2021/08/22 08:11:03;;;;;;;0.82;0.10;;;;;;;23.10;41.14;100675.52;1666022;84;21075;-58
2021/08/22 08:13:30;;;;;;;0.20;0.10;;;;;;;23.10;40.98;100675.52;1667729;84;21149;-60
2021/08/22 08:15:57;;;;;;;0.40;0.25;;;;;;;23.10;41.55;100676.88;1622136;86;21051;-62
2021/08/22 08:18:24;;;;;;;0.88;0.20;;;;;;;23.17;41.11;100671.73;1608447;88;21011;-61
2021/08/22 08:20:50;;;;;;;0.33;0.15;;;;;;;23.20;41.15;100660.34;1605546;88;21090;-62
2021/08/22 08:23:16;;;;;;;0.95;0.20;;;;;;;23.29;40.54;100667.72;1631237;86;22180;-63
2021/08/22 08:25:42;;;;;;;1.02;0.20;;;;;;;23.33;40.64;100669.38;1644108;86;21025;-63
2021/08/22 08:28:08;;;;;;;0.50;0.10;;;;;;;23.37;40.42;100669.11;1634590;86;21074;-62
2021/08/22 08:30:35;;;;;;;1.42;0.17;;;;;;;23.45;40.61;100667.78;1632877;86;21006;-62
2021/08/22 08:33:01;;;;;;;0.20;0.10;;;;;;;23.54;40.34;100659.38;1635782;86;21088;-60
2021/08/22 08:35:28;;;;;;;4.47;0.30;;;;;;;23.67;39.67;100666.23;1633665;86;21135;-63
2021/08/22 08:37:54;;;;;;;2.17;0.13;;;;;;;23.70;39.77;100657.55;1635562;86;21613;-60
2021/08/22 08:40:22;;;;;;;2.30;0.13;;;;;;;23.71;39.81;100663.24;1632520;86;21084;-60
2021/08/22 08:42:54;;;;;;;0.45;0.10;;;;;;;23.72;39.27;100667.61;1634038;86;21394;-61
2021/08/22 08:46:08;;;;;;;0.10;0.10;;;;;;;23.71;39.04;100671.41;1635118;86;21582;-61
2021/08/22 08:49:02;;;;;;;0.98;0.20;;;;;;;23.65;39.20;100662.96;1633842;86;21113;-60
2021/08/22 08:52:04;;;;;;;0.60;0.20;;;;;;;23.64;39.75;100670.31;1637010;86;22312;-61
2021/08/22 08:54:50;;;;;;;0.50;0.30;;;;;;;23.67;39.83;100659.42;1640513;86;21062;-62
2021/08/22 08:57:16;;;;;;;2.60;0.50;;;;;;;23.67;39.74;100662.95;1629490;86;21111;-62
2021/08/22 09:01:07;;;;;;;4.25;0.20;;;;;;;23.67;39.83;100664.87;1744299;79;22844;-60
2021/08/22 09:03:36;;;;;;;1.30;0.15;;;;;;;23.64;39.95;100666.75;1673802;84;21066;-61
2021/08/22 09:06:27;;;;;;;0.55;0.20;;;;;;;23.64;39.65;100664.03;1667618;84;21048;-64
2021/08/22 09:09:19;;;;;;;1.30;0.20;;;;;;;23.64;39.73;100658.59;1648486;85;21072;-68
2021/08/22 09:12:19;;;;;;;0.45;0.10;;;;;;;23.62;39.80;100659.41;1666207;84;21054;-66
2021/08/22 09:15:43;;;;;;;0.68;0.20;;;;;;;23.61;40.24;100663.23;1665776;85;21129;-65
2021/08/22 09:19:01;;;;;;;0.62;0.20;;;;;;;23.62;39.91;100664.84;1667341;85;21050;-64
2021/08/22 09:22:23;;;;;;;0.50;0.10;;;;;;;23.66;39.49;100665.97;1669112;84;21041;-66
2021/08/22 09:25:24;;;;;;;0.40;0.28;;;;;;;23.80;39.28;100667.11;1679922;84;21102;-62
2021/08/22 09:28:40;;;;;;;0.15;0.10;;;;;;;23.96;39.21;100660.33;1677718;84;21054;-63
2021/08/22 09:31:38;;;;;;;0.85;0.10;;;;;;;24.08;39.07;100654.09;1679886;84;21038;-62
2021/08/22 09:35:00;;;;;;;1.17;0.20;;;;;;;23.97;37.59;100653.81;1633074;86;21078;-51
2021/08/22 09:38:10;;;;;;;1.72;0.20;;;;;;;23.85;38.16;100653.52;1689994;84;21091;-60
2021/08/22 09:41:01;;;;;;;0.30;0.10;;;;;;;23.76;38.28;100655.10;1698884;82;21061;-58
2021/08/22 09:47:08;;;;;;;3.20;0.20;;;;;;;23.69;38.76;100655.89;1591771;84;21121;-61
2021/08/22 09:50:32;;;;;;;0.53;0.10;;;;;;;23.75;38.62;100649.37;1582708;89;21534;-63
2021/08/22 09:53:48;;;;;;;0.28;0.20;;;;;;;23.78;38.33;100651.56;1583377;89;21231;-61
2021/08/22 09:56:45;;;;;;;1.60;0.40;;;;;;;23.78;38.93;100654.28;1585805;89;21113;-60
2021/08/22 10:00:08;;;;;;;0.47;0.20;;;;;;;23.85;38.64;100654.88;1587659;89;21594;-60
2021/08/22 10:02:51;;;;;;;0.25;0.20;;;;;;;23.85;38.58;100656.80;1588249;89;21069;-62
2021/08/22 10:05:51;;;;;;;0.60;0.20;;;;;;;23.74;38.67;100655.11;1575281;89;21049;-62
2021/08/22 10:08:38;;;;;;;0.30;0.10;;;;;;;23.69;38.70;100647.73;1586509;89;21048;-61
2021/08/22 10:11:09;;;;;;;6.03;0.13;;;;;;;23.71;38.35;100655.08;1588761;89;21084;-59
2021/08/22 10:13:38;;;;;;;0.28;0.20;;;;;;;23.67;38.78;100655.34;1586830;89;21563;-59
2021/08/22 10:16:05;;;;;;;0.20;0.10;;;;;;;23.68;38.92;100655.63;1591948;89;21121;-58
2021/08/22 10:18:31;;;;;;;0.62;0.20;;;;;;;23.70;38.99;100650.73;1585892;89;21025;-58
2021/08/22 10:21:06;;;;;;;0.33;0.10;;;;;;;23.69;38.63;100651.81;1562431;90;21098;-60
2021/08/22 10:23:43;;;;;;;0.75;0.20;;;;;;;23.68;38.98;100652.91;1587433;87;21066;-54
2021/08/22 10:26:11;;;;;;;1.47;0.20;;;;;;;23.69;38.86;100651.81;1548237;90;21103;-58
2021/08/22 10:29:01;;;;;;;0.42;0.20;;;;;;;23.66;38.53;100653.17;1589619;89;21560;-58
2021/08/22 10:31:54;;;;;;;0.20;0.20;;;;;;;23.70;38.76;100646.11;1585887;89;21050;-58
2021/08/22 10:34:26;;;;;;;0.78;0.10;;;;;;;23.78;39.08;100645.31;1599808;88;21031;-58
2021/08/22 10:36:53;;;;;;;2.20;0.20;;;;;;;23.89;38.25;100647.00;1613707;87;21097;-57
2021/08/22 10:39:25;;;;;;;0.62;0.20;;;;;;;23.89;37.95;100655.16;1613674;87;21069;-57
2021/08/22 10:41:56;;;;;;;0.30;0.20;;;;;;;23.79;38.00;100649.16;1614480;88;21045;-58
2021/08/22 10:44:38;;;;;;;0.72;0.20;;;;;;;23.53;38.21;100615.59;1590719;87;21121;-57
2021/08/22 10:47:11;;;;;;;4.20;0.30;;;;;;;23.82;37.96;100654.59;1617726;87;21110;-59
2021/08/22 10:49:58;;;;;;;2.30;0.10;;;;;;;23.96;37.69;100652.16;1618971;87;21091;-58
2021/08/22 10:52:36;;;;;;;1.20;0.10;;;;;;;24.05;37.92;100647.82;1617955;87;21038;-57
2021/08/22 10:55:14;;;;;;;1.75;0.10;;;;;;;24.18;36.72;100650.00;1619747;87;21109;-57
2021/08/22 10:57:49;;;;;;;2.60;0.20;;;;;;;24.29;36.16;100646.20;1619455;87;21553;-59
2021/08/22 11:00:23;;;;;;;1.65;0.30;;;;;;;24.41;36.06;100645.10;1618733;88;21067;-59
2021/08/22 11:03:02;;;;;;;1.57;0.20;;;;;;;24.51;35.68;100651.11;1621019;87;21086;-59
2021/08/22 11:05:33;;;;;;;0.98;0.20;;;;;;;24.56;35.55;100657.93;1621848;87;21565;-58
2021/08/22 11:08:20;;;;;;;0.72;0.30;;;;;;;24.54;35.16;100652.75;1624791;87;21083;-57
2021/08/22 11:11:03;;;;;;;2.65;0.30;;;;;;;24.53;35.55;100661.22;1620048;88;21012;-59
2021/08/22 11:13:37;;;;;;;0.57;0.17;;;;;;;24.52;35.54;100649.48;1605327;87;21043;-60
2021/08/22 11:16:10;;;;;;;1.22;0.20;;;;;;;24.52;35.63;100653.58;1616176;87;22072;-59
2021/08/22 11:18:39;;;;;;;0.30;0.10;;;;;;;24.56;35.67;100651.93;1614873;87;21047;-60
2021/08/22 11:21:06;;;;;;;0.25;0.10;;;;;;;24.58;35.88;100641.59;1611261;87;21571;-60
2021/08/22 11:23:32;;;;;;;1.20;0.10;;;;;;;24.64;36.17;100643.77;1614484;87;21033;-59
2021/08/22 11:26:03;;;;;;;1.85;0.40;;;;;;;24.69;34.86;100643.73;1605017;87;21533;-59
2021/08/22 11:28:31;;;;;;;2.60;0.10;;;;;;;24.68;34.22;100638.03;1622439;88;21052;-60
2021/08/22 11:30:58;;;;;;;0.28;0.10;;;;;;;24.64;34.35;100635.04;1625624;87;21051;-58
2021/08/22 11:33:29;;;;;;;0.47;0.20;;;;;;;24.64;33.94;100637.77;1629009;87;21098;-59
2021/08/22 11:35:57;;;;;;;3.92;0.20;;;;;;;24.62;34.20;100632.30;1631862;87;21064;-58
2021/08/22 11:38:23;;;;;;;0.20;0.10;;;;;;;24.56;34.44;100636.94;1621759;87;21133;-58
2021/08/22 11:40:56;;;;;;;2.58;0.30;;;;;;;24.51;34.72;100636.13;1616968;87;21109;-57
2021/08/22 11:43:25;;;;;;;1.70;0.30;;;;;;;24.47;34.82;100638.03;1616750;88;21087;-59
2021/08/22 11:45:51;;;;;;;0.68;0.20;;;;;;;24.40;35.16;100636.13;1632148;86;21080;-58
2021/08/22 11:48:21;;;;;;;0.55;0.28;;;;;;;24.34;35.44;100634.50;1623370;85;21586;-53
2021/08/22 11:50:48;;;;;;;0.57;0.10;;;;;;;24.31;35.58;100635.59;1617800;87;21069;-58